메인 페이지
METAR-TAF:

METAR-TAF

공항 :

오클라호마시티, 오클라호마, 미국

위도: 35-23-19N, 경도: 097-36-01W, 고도: 394m

현재 날씨관측

예보는 26분 전, 00:52시(UTC)에 발표되었습니다.
북북동5kt
온도 12°C
습도 67%
기압 1025 hPa
시정: 16.1km
고도 2700ft 상공 흐림

METAR: KOKC 260052Z 02005KT 10SM OVC027 12/06 A3027 RMK AO2 SLP251 T01170056

시각: 20:18 (01:18 UTC)

예보

예보는 1 시간 55분 전, 23:23시(UTC)에 발표되었습니다.
예보 대상 시간: 26일 00시부터 26일 24시까지 (UTC)
북북동8kt
시정: 10km
고도 3500ft 상공 구름 많음
26일 0300시부터 (UTC)
북동4kt
시정: 10km
고도 10000ft 상공 구름 보통
26일 1000시부터 (UTC)
여러 방향의 바람 4kt
시정: 6.4km
고도 10000ft 상공 구름 보통
박무
26일 1500시부터 (UTC)
동남동4kt
시정: 10km
고도 2500ft 상공 구름 보통
고도 25000ft 상공 구름 보통

TAF: KOKC 252323Z 2600/2624 03008KT P6SM BKN035 FM260300 05004KT P6SM SCT100 FM261000 VRB04KT 4SM BR SCT100 FM261500 12004KT P6SM SCT025 SCT250

4,000개 이상의 공항 관측 자료 및 예보 (METAR 및 TAF 보고).

지도상에서 검색 가능한 기상관측소가 노란 점과 빨간 점으로 표시되어 있습니다.

기상관측소 명을 보려면 표시 위로 마우스를 이동하세요.

날씨 관측과 예보를 보려면 클릭하세요.

지도 변경 : 확대하려면 엑스 표시가 있는 녹색 버튼, 축소하려면 빼기 표시가 있는 녹색 버튼, 다음 페이지의 지도를 보려면 녹색 화살표를 클릭하세요.


METAR-TAF: